sensor_id;sensor_type;location;lat;lon;timestamp;P1;durP1;ratioP1;P2;durP2;ratioP2
37655;SDS011;23498;50.958;3.124;2023-05-20T00:00:33;31.13;;;11.07;;
37655;SDS011;23498;50.958;3.124;2023-05-20T00:02:59;28.30;;;11.85;;
37655;SDS011;23498;50.958;3.124;2023-05-20T00:05:25;29.38;;;10.70;;
37655;SDS011;23498;50.958;3.124;2023-05-20T00:07:51;27.45;;;11.82;;
37655;SDS011;23498;50.958;3.124;2023-05-20T00:10:17;26.15;;;11.40;;
37655;SDS011;23498;50.958;3.124;2023-05-20T00:12:43;28.05;;;11.70;;
37655;SDS011;23498;50.958;3.124;2023-05-20T00:15:09;26.88;;;11.88;;
37655;SDS011;23498;50.958;3.124;2023-05-20T00:17:38;30.30;;;11.38;;
37655;SDS011;23498;50.958;3.124;2023-05-20T00:20:04;33.45;;;11.80;;
37655;SDS011;23498;50.958;3.124;2023-05-20T00:22:31;26.80;;;12.93;;
37655;SDS011;23498;50.958;3.124;2023-05-20T00:24:57;26.42;;;11.45;;
37655;SDS011;23498;50.958;3.124;2023-05-20T00:27:23;24.83;;;13.38;;
37655;SDS011;23498;50.958;3.124;2023-05-20T00:29:49;27.30;;;11.60;;
37655;SDS011;23498;50.958;3.124;2023-05-20T00:32:15;23.40;;;12.02;;
37655;SDS011;23498;50.958;3.124;2023-05-20T00:34:42;29.55;;;12.98;;
37655;SDS011;23498;50.958;3.124;2023-05-20T00:37:08;27.88;;;12.60;;
37655;SDS011;23498;50.958;3.124;2023-05-20T00:39:34;28.85;;;12.10;;
37655;SDS011;23498;50.958;3.124;2023-05-20T00:42:00;26.13;;;12.60;;
37655;SDS011;23498;50.958;3.124;2023-05-20T00:44:27;27.40;;;13.15;;
37655;SDS011;23498;50.958;3.124;2023-05-20T00:46:53;29.15;;;12.85;;
37655;SDS011;23498;50.958;3.124;2023-05-20T00:49:20;22.52;;;12.23;;
37655;SDS011;23498;50.958;3.124;2023-05-20T00:51:47;27.83;;;12.70;;
37655;SDS011;23498;50.958;3.124;2023-05-20T00:54:13;27.52;;;13.02;;
37655;SDS011;23498;50.958;3.124;2023-05-20T00:56:39;28.80;;;14.15;;
37655;SDS011;23498;50.958;3.124;2023-05-20T00:59:06;25.88;;;13.98;;
37655;SDS011;23498;50.958;3.124;2023-05-20T01:01:32;26.70;;;13.35;;
37655;SDS011;23498;50.958;3.124;2023-05-20T01:03:58;28.08;;;13.73;;
37655;SDS011;23498;50.958;3.124;2023-05-20T01:06:24;29.52;;;13.45;;
37655;SDS011;23498;50.958;3.124;2023-05-20T01:08:52;27.88;;;14.15;;
37655;SDS011;23498;50.958;3.124;2023-05-20T01:13:46;25.00;;;14.32;;
37655;SDS011;23498;50.958;3.124;2023-05-20T01:16:13;29.08;;;14.00;;
37655;SDS011;23498;50.958;3.124;2023-05-20T01:18:39;31.25;;;14.45;;
37655;SDS011;23498;50.958;3.124;2023-05-20T01:21:06;30.45;;;15.63;;
37655;SDS011;23498;50.958;3.124;2023-05-20T01:23:37;26.45;;;14.20;;
37655;SDS011;23498;50.958;3.124;2023-05-20T01:28:32;26.40;;;13.63;;
37655;SDS011;23498;50.958;3.124;2023-05-20T01:30:59;27.38;;;14.85;;
37655;SDS011;23498;50.958;3.124;2023-05-20T01:33:26;31.42;;;14.82;;
37655;SDS011;23498;50.958;3.124;2023-05-20T01:35:53;28.98;;;13.98;;
37655;SDS011;23498;50.958;3.124;2023-05-20T01:38:20;26.25;;;15.50;;
37655;SDS011;23498;50.958;3.124;2023-05-20T01:40:46;24.77;;;13.65;;
37655;SDS011;23498;50.958;3.124;2023-05-20T01:43:13;26.65;;;14.25;;
37655;SDS011;23498;50.958;3.124;2023-05-20T01:45:42;27.50;;;15.25;;
37655;SDS011;23498;50.958;3.124;2023-05-20T01:48:09;25.85;;;13.75;;
37655;SDS011;23498;50.958;3.124;2023-05-20T01:50:35;26.45;;;13.88;;
37655;SDS011;23498;50.958;3.124;2023-05-20T01:53:02;24.52;;;12.88;;
37655;SDS011;23498;50.958;3.124;2023-05-20T01:55:28;21.17;;;13.80;;
37655;SDS011;23498;50.958;3.124;2023-05-20T01:57:54;23.92;;;13.43;;
37655;SDS011;23498;50.958;3.124;2023-05-20T02:00:20;26.27;;;12.95;;
37655;SDS011;23498;50.958;3.124;2023-05-20T02:02:46;23.05;;;12.88;;
37655;SDS011;23498;50.958;3.124;2023-05-20T02:05:12;31.05;;;12.85;;
37655;SDS011;23498;50.958;3.124;2023-05-20T02:07:38;26.58;;;13.00;;
37655;SDS011;23498;50.958;3.124;2023-05-20T02:10:04;20.23;;;12.45;;
37655;SDS011;23498;50.958;3.124;2023-05-20T02:12:30;20.55;;;12.20;;
37655;SDS011;23498;50.958;3.124;2023-05-20T02:14:56;19.65;;;12.05;;
37655;SDS011;23498;50.958;3.124;2023-05-20T02:17:22;20.45;;;11.90;;
37655;SDS011;23498;50.958;3.124;2023-05-20T02:19:48;18.88;;;11.25;;
37655;SDS011;23498;50.958;3.124;2023-05-20T02:22:15;20.70;;;11.68;;
37655;SDS011;23498;50.958;3.124;2023-05-20T02:24:41;19.05;;;11.63;;
37655;SDS011;23498;50.958;3.124;2023-05-20T02:27:07;20.65;;;11.02;;
37655;SDS011;23498;50.958;3.124;2023-05-20T02:29:33;21.25;;;11.18;;
37655;SDS011;23498;50.958;3.124;2023-05-20T02:31:59;20.95;;;11.73;;
37655;SDS011;23498;50.958;3.124;2023-05-20T02:34:26;21.17;;;10.65;;
37655;SDS011;23498;50.958;3.124;2023-05-20T02:36:52;17.17;;;10.75;;
37655;SDS011;23498;50.958;3.124;2023-05-20T02:39:18;15.77;;;10.57;;
37655;SDS011;23498;50.958;3.124;2023-05-20T02:41:44;21.75;;;10.88;;
37655;SDS011;23498;50.958;3.124;2023-05-20T02:44:10;19.15;;;10.52;;
37655;SDS011;23498;50.958;3.124;2023-05-20T02:46:36;19.40;;;10.40;;
37655;SDS011;23498;50.958;3.124;2023-05-20T02:49:02;19.60;;;10.20;;
37655;SDS011;23498;50.958;3.124;2023-05-20T02:51:28;16.85;;;10.50;;
37655;SDS011;23498;50.958;3.124;2023-05-20T02:53:56;19.20;;;10.10;;
37655;SDS011;23498;50.958;3.124;2023-05-20T02:56:22;17.90;;;9.73;;
37655;SDS011;23498;50.958;3.124;2023-05-20T02:58:48;14.65;;;10.05;;
37655;SDS011;23498;50.958;3.124;2023-05-20T03:01:14;16.65;;;9.63;;
37655;SDS011;23498;50.958;3.124;2023-05-20T03:03:41;17.88;;;9.32;;
37655;SDS011;23498;50.958;3.124;2023-05-20T03:06:07;16.73;;;9.15;;
37655;SDS011;23498;50.958;3.124;2023-05-20T03:08:33;17.35;;;9.23;;
37655;SDS011;23498;50.958;3.124;2023-05-20T03:10:59;16.27;;;8.73;;
37655;SDS011;23498;50.958;3.124;2023-05-20T03:13:25;17.05;;;9.75;;
37655;SDS011;23498;50.958;3.124;2023-05-20T03:15:51;15.70;;;8.32;;
37655;SDS011;23498;50.958;3.124;2023-05-20T03:18:17;15.60;;;8.73;;
37655;SDS011;23498;50.958;3.124;2023-05-20T03:20:44;13.43;;;8.23;;
37655;SDS011;23498;50.958;3.124;2023-05-20T03:23:11;19.20;;;8.82;;
37655;SDS011;23498;50.958;3.124;2023-05-20T03:25:37;14.77;;;8.50;;
37655;SDS011;23498;50.958;3.124;2023-05-20T03:28:04;13.70;;;8.05;;
37655;SDS011;23498;50.958;3.124;2023-05-20T03:30:30;17.38;;;8.65;;
37655;SDS011;23498;50.958;3.124;2023-05-20T03:32:57;17.52;;;8.60;;
37655;SDS011;23498;50.958;3.124;2023-05-20T03:35:23;18.90;;;8.57;;
37655;SDS011;23498;50.958;3.124;2023-05-20T03:37:49;17.67;;;9.00;;
37655;SDS011;23498;50.958;3.124;2023-05-20T03:40:19;15.10;;;7.85;;
37655;SDS011;23498;50.958;3.124;2023-05-20T03:42:45;12.98;;;7.80;;
37655;SDS011;23498;50.958;3.124;2023-05-20T03:45:11;14.80;;;7.90;;
37655;SDS011;23498;50.958;3.124;2023-05-20T03:47:37;14.98;;;7.47;;
37655;SDS011;23498;50.958;3.124;2023-05-20T03:50:03;14.75;;;7.32;;
37655;SDS011;23498;50.958;3.124;2023-05-20T03:52:30;14.43;;;8.13;;
37655;SDS011;23498;50.958;3.124;2023-05-20T03:54:56;13.75;;;7.80;;
37655;SDS011;23498;50.958;3.124;2023-05-20T03:57:22;15.02;;;7.93;;
37655;SDS011;23498;50.958;3.124;2023-05-20T03:59:48;15.02;;;7.60;;
37655;SDS011;23498;50.958;3.124;2023-05-20T04:02:15;15.63;;;7.75;;
37655;SDS011;23498;50.958;3.124;2023-05-20T04:04:41;13.75;;;7.00;;
37655;SDS011;23498;50.958;3.124;2023-05-20T04:07:07;17.23;;;6.80;;
37655;SDS011;23498;50.958;3.124;2023-05-20T04:09:33;14.05;;;7.15;;
37655;SDS011;23498;50.958;3.124;2023-05-20T04:12:00;11.40;;;6.97;;
37655;SDS011;23498;50.958;3.124;2023-05-20T04:14:27;13.18;;;7.10;;
37655;SDS011;23498;50.958;3.124;2023-05-20T04:16:53;11.52;;;6.88;;
37655;SDS011;23498;50.958;3.124;2023-05-20T04:19:19;11.25;;;7.00;;
37655;SDS011;23498;50.958;3.124;2023-05-20T04:21:45;11.88;;;6.90;;
37655;SDS011;23498;50.958;3.124;2023-05-20T04:24:11;15.35;;;6.95;;
37655;SDS011;23498;50.958;3.124;2023-05-20T04:26:37;13.45;;;6.97;;
37655;SDS011;23498;50.958;3.124;2023-05-20T04:29:03;14.75;;;6.35;;
37655;SDS011;23498;50.958;3.124;2023-05-20T04:31:29;14.25;;;7.20;;
37655;SDS011;23498;50.958;3.124;2023-05-20T04:33:56;12.75;;;6.38;;
37655;SDS011;23498;50.958;3.124;2023-05-20T04:36:22;16.30;;;7.13;;
37655;SDS011;23498;50.958;3.124;2023-05-20T04:38:53;13.95;;;6.47;;
37655;SDS011;23498;50.958;3.124;2023-05-20T04:41:19;13.88;;;7.22;;
37655;SDS011;23498;50.958;3.124;2023-05-20T04:43:45;12.50;;;6.40;;
37655;SDS011;23498;50.958;3.124;2023-05-20T04:46:11;10.40;;;6.15;;
37655;SDS011;23498;50.958;3.124;2023-05-20T04:48:38;10.07;;;6.18;;
37655;SDS011;23498;50.958;3.124;2023-05-20T04:51:04;13.63;;;6.13;;
37655;SDS011;23498;50.958;3.124;2023-05-20T04:53:30;12.85;;;6.63;;
37655;SDS011;23498;50.958;3.124;2023-05-20T04:55:57;11.13;;;5.95;;
37655;SDS011;23498;50.958;3.124;2023-05-20T04:58:24;12.63;;;6.60;;
37655;SDS011;23498;50.958;3.124;2023-05-20T05:00:50;10.40;;;6.20;;
37655;SDS011;23498;50.958;3.124;2023-05-20T05:03:16;15.70;;;6.30;;
37655;SDS011;23498;50.958;3.124;2023-05-20T05:05:42;15.25;;;6.25;;
37655;SDS011;23498;50.958;3.124;2023-05-20T05:08:09;11.02;;;5.97;;
37655;SDS011;23498;50.958;3.124;2023-05-20T05:10:38;13.88;;;6.05;;
37655;SDS011;23498;50.958;3.124;2023-05-20T05:13:04;11.75;;;5.60;;
37655;SDS011;23498;50.958;3.124;2023-05-20T05:15:30;10.70;;;6.10;;
37655;SDS011;23498;50.958;3.124;2023-05-20T05:17:56;11.45;;;6.20;;
37655;SDS011;23498;50.958;3.124;2023-05-20T05:20:22;12.07;;;6.35;;
37655;SDS011;23498;50.958;3.124;2023-05-20T05:22:48;11.55;;;6.22;;
37655;SDS011;23498;50.958;3.124;2023-05-20T05:25:15;10.45;;;6.07;;
37655;SDS011;23498;50.958;3.124;2023-05-20T05:27:41;12.50;;;6.47;;
37655;SDS011;23498;50.958;3.124;2023-05-20T05:30:08;11.43;;;6.22;;
37655;SDS011;23498;50.958;3.124;2023-05-20T05:32:35;9.57;;;6.00;;
37655;SDS011;23498;50.958;3.124;2023-05-20T05:35:01;13.23;;;5.97;;
37655;SDS011;23498;50.958;3.124;2023-05-20T05:37:27;11.93;;;6.22;;
37655;SDS011;23498;50.958;3.124;2023-05-20T05:39:53;11.55;;;5.95;;
37655;SDS011;23498;50.958;3.124;2023-05-20T05:42:19;12.82;;;5.95;;
37655;SDS011;23498;50.958;3.124;2023-05-20T05:44:45;13.18;;;6.88;;
37655;SDS011;23498;50.958;3.124;2023-05-20T05:47:11;12.35;;;6.55;;
37655;SDS011;23498;50.958;3.124;2023-05-20T05:49:37;10.07;;;5.93;;
37655;SDS011;23498;50.958;3.124;2023-05-20T05:52:03;14.45;;;7.18;;
37655;SDS011;23498;50.958;3.124;2023-05-20T05:54:29;12.75;;;5.95;;
37655;SDS011;23498;50.958;3.124;2023-05-20T05:56:55;12.32;;;6.50;;
37655;SDS011;23498;50.958;3.124;2023-05-20T05:59:21;9.85;;;6.13;;
37655;SDS011;23498;50.958;3.124;2023-05-20T06:01:47;15.30;;;5.88;;
37655;SDS011;23498;50.958;3.124;2023-05-20T06:04:13;10.93;;;6.28;;
37655;SDS011;23498;50.958;3.124;2023-05-20T06:06:40;9.55;;;6.03;;
37655;SDS011;23498;50.958;3.124;2023-05-20T06:09:06;12.20;;;6.13;;
37655;SDS011;23498;50.958;3.124;2023-05-20T06:11:32;13.52;;;6.38;;
37655;SDS011;23498;50.958;3.124;2023-05-20T06:13:58;13.13;;;6.18;;
37655;SDS011;23498;50.958;3.124;2023-05-20T06:16:24;11.80;;;6.07;;
37655;SDS011;23498;50.958;3.124;2023-05-20T06:18:50;15.80;;;6.97;;
37655;SDS011;23498;50.958;3.124;2023-05-20T06:21:19;10.80;;;6.32;;
37655;SDS011;23498;50.958;3.124;2023-05-20T06:23:45;11.35;;;6.38;;
37655;SDS011;23498;50.958;3.124;2023-05-20T06:26:11;11.30;;;6.32;;
37655;SDS011;23498;50.958;3.124;2023-05-20T06:28:37;11.95;;;6.88;;
37655;SDS011;23498;50.958;3.124;2023-05-20T06:31:04;13.52;;;7.22;;
37655;SDS011;23498;50.958;3.124;2023-05-20T06:33:30;11.80;;;6.43;;
37655;SDS011;23498;50.958;3.124;2023-05-20T06:35:57;13.73;;;5.75;;
37655;SDS011;23498;50.958;3.124;2023-05-20T06:38:25;12.93;;;6.35;;
37655;SDS011;23498;50.958;3.124;2023-05-20T06:40:51;15.27;;;6.90;;
37655;SDS011;23498;50.958;3.124;2023-05-20T06:43:17;10.80;;;6.55;;
37655;SDS011;23498;50.958;3.124;2023-05-20T06:45:43;13.38;;;6.93;;
37655;SDS011;23498;50.958;3.124;2023-05-20T06:48:10;9.80;;;6.50;;
37655;SDS011;23498;50.958;3.124;2023-05-20T06:50:36;12.48;;;6.32;;
37655;SDS011;23498;50.958;3.124;2023-05-20T06:53:02;15.45;;;6.70;;
37655;SDS011;23498;50.958;3.124;2023-05-20T06:55:28;12.65;;;6.55;;
37655;SDS011;23498;50.958;3.124;2023-05-20T06:57:55;10.32;;;6.28;;
37655;SDS011;23498;50.958;3.124;2023-05-20T07:00:21;12.85;;;6.30;;
37655;SDS011;23498;50.958;3.124;2023-05-20T07:02:47;8.75;;;6.40;;
37655;SDS011;23498;50.958;3.124;2023-05-20T07:05:13;10.43;;;5.97;;
37655;SDS011;23498;50.958;3.124;2023-05-20T07:07:39;14.38;;;6.55;;
37655;SDS011;23498;50.958;3.124;2023-05-20T07:10:05;13.57;;;6.38;;
37655;SDS011;23498;50.958;3.124;2023-05-20T07:12:31;9.52;;;5.68;;
37655;SDS011;23498;50.958;3.124;2023-05-20T07:14:57;10.02;;;5.93;;
37655;SDS011;23498;50.958;3.124;2023-05-20T07:17:24;11.68;;;6.38;;
37655;SDS011;23498;50.958;3.124;2023-05-20T07:19:50;10.23;;;6.30;;
37655;SDS011;23498;50.958;3.124;2023-05-20T07:22:16;11.05;;;5.57;;
37655;SDS011;23498;50.958;3.124;2023-05-20T07:24:43;11.27;;;6.07;;
37655;SDS011;23498;50.958;3.124;2023-05-20T07:27:08;10.98;;;6.55;;
37655;SDS011;23498;50.958;3.124;2023-05-20T07:29:35;9.20;;;5.85;;
37655;SDS011;23498;50.958;3.124;2023-05-20T07:32:02;13.40;;;5.47;;
37655;SDS011;23498;50.958;3.124;2023-05-20T07:34:28;11.25;;;5.28;;
37655;SDS011;23498;50.958;3.124;2023-05-20T07:36:54;9.45;;;5.13;;
37655;SDS011;23498;50.958;3.124;2023-05-20T07:39:21;10.77;;;5.20;;
37655;SDS011;23498;50.958;3.124;2023-05-20T07:41:47;10.80;;;5.53;;
37655;SDS011;23498;50.958;3.124;2023-05-20T07:44:13;9.07;;;5.40;;
37655;SDS011;23498;50.958;3.124;2023-05-20T07:46:39;10.13;;;5.20;;
37655;SDS011;23498;50.958;3.124;2023-05-20T07:49:06;8.20;;;4.72;;
37655;SDS011;23498;50.958;3.124;2023-05-20T07:51:32;9.25;;;5.05;;
37655;SDS011;23498;50.958;3.124;2023-05-20T07:53:58;8.50;;;4.90;;
37655;SDS011;23498;50.958;3.124;2023-05-20T07:56:24;8.45;;;4.68;;
37655;SDS011;23498;50.958;3.124;2023-05-20T07:58:51;9.73;;;5.00;;
37655;SDS011;23498;50.958;3.124;2023-05-20T08:01:17;9.75;;;4.70;;
37655;SDS011;23498;50.958;3.124;2023-05-20T08:03:44;8.43;;;5.28;;
37655;SDS011;23498;50.958;3.124;2023-05-20T08:06:10;6.80;;;4.88;;
37655;SDS011;23498;50.958;3.124;2023-05-20T08:08:36;9.77;;;5.65;;
37655;SDS011;23498;50.958;3.124;2023-05-20T08:11:04;9.23;;;4.57;;
37655;SDS011;23498;50.958;3.124;2023-05-20T08:13:30;10.07;;;5.10;;
37655;SDS011;23498;50.958;3.124;2023-05-20T08:15:56;10.02;;;4.90;;
37655;SDS011;23498;50.958;3.124;2023-05-20T08:18:22;6.07;;;4.63;;
37655;SDS011;23498;50.958;3.124;2023-05-20T08:20:48;9.18;;;4.40;;
37655;SDS011;23498;50.958;3.124;2023-05-20T08:23:14;8.38;;;4.78;;
37655;SDS011;23498;50.958;3.124;2023-05-20T08:25:40;7.13;;;5.13;;
37655;SDS011;23498;50.958;3.124;2023-05-20T08:28:07;7.90;;;4.45;;
37655;SDS011;23498;50.958;3.124;2023-05-20T08:30:33;5.97;;;4.28;;
37655;SDS011;23498;50.958;3.124;2023-05-20T08:32:59;7.38;;;4.65;;
37655;SDS011;23498;50.958;3.124;2023-05-20T08:35:25;8.32;;;4.30;;
37655;SDS011;23498;50.958;3.124;2023-05-20T08:37:52;7.32;;;4.43;;
37655;SDS011;23498;50.958;3.124;2023-05-20T08:40:18;6.93;;;4.32;;
37655;SDS011;23498;50.958;3.124;2023-05-20T08:42:45;9.90;;;4.22;;
37655;SDS011;23498;50.958;3.124;2023-05-20T08:45:13;9.93;;;5.35;;
37655;SDS011;23498;50.958;3.124;2023-05-20T08:47:40;7.97;;;4.85;;
37655;SDS011;23498;50.958;3.124;2023-05-20T08:50:08;6.75;;;4.30;;
37655;SDS011;23498;50.958;3.124;2023-05-20T08:52:34;9.93;;;5.53;;
37655;SDS011;23498;50.958;3.124;2023-05-20T08:55:01;7.65;;;4.30;;
37655;SDS011;23498;50.958;3.124;2023-05-20T08:57:29;6.70;;;4.40;;
37655;SDS011;23498;50.958;3.124;2023-05-20T08:59:58;7.88;;;4.15;;
37655;SDS011;23498;50.958;3.124;2023-05-20T09:02:24;7.35;;;4.15;;
37655;SDS011;23498;50.958;3.124;2023-05-20T09:04:50;7.20;;;3.92;;
37655;SDS011;23498;50.958;3.124;2023-05-20T09:07:27;7.72;;;4.72;;
37655;SDS011;23498;50.958;3.124;2023-05-20T09:09:53;8.95;;;4.95;;
37655;SDS011;23498;50.958;3.124;2023-05-20T09:12:19;10.18;;;5.40;;
37655;SDS011;23498;50.958;3.124;2023-05-20T09:14:46;7.43;;;3.70;;
37655;SDS011;23498;50.958;3.124;2023-05-20T09:17:12;6.60;;;4.25;;
37655;SDS011;23498;50.958;3.124;2023-05-20T09:19:38;6.22;;;3.85;;
37655;SDS011;23498;50.958;3.124;2023-05-20T09:22:05;7.28;;;3.63;;
37655;SDS011;23498;50.958;3.124;2023-05-20T09:24:31;6.32;;;4.05;;
37655;SDS011;23498;50.958;3.124;2023-05-20T09:26:57;8.63;;;4.38;;
37655;SDS011;23498;50.958;3.124;2023-05-20T09:29:24;8.25;;;3.88;;
37655;SDS011;23498;50.958;3.124;2023-05-20T09:31:50;5.72;;;3.45;;
37655;SDS011;23498;50.958;3.124;2023-05-20T09:34:18;6.60;;;4.07;;
37655;SDS011;23498;50.958;3.124;2023-05-20T09:36:45;9.10;;;3.70;;
37655;SDS011;23498;50.958;3.124;2023-05-20T09:39:15;8.00;;;3.97;;
37655;SDS011;23498;50.958;3.124;2023-05-20T09:44:10;8.38;;;4.00;;
37655;SDS011;23498;50.958;3.124;2023-05-20T09:46:37;7.53;;;4.07;;
37655;SDS011;23498;50.958;3.124;2023-05-20T09:49:03;5.57;;;3.75;;
37655;SDS011;23498;50.958;3.124;2023-05-20T09:51:32;8.02;;;3.70;;
37655;SDS011;23498;50.958;3.124;2023-05-20T09:53:58;5.25;;;3.40;;
37655;SDS011;23498;50.958;3.124;2023-05-20T09:56:25;6.43;;;3.30;;
37655;SDS011;23498;50.958;3.124;2023-05-20T09:58:52;5.90;;;3.17;;
37655;SDS011;23498;50.958;3.124;2023-05-20T10:01:22;5.60;;;3.22;;
37655;SDS011;23498;50.958;3.124;2023-05-20T10:03:49;6.20;;;3.78;;
37655;SDS011;23498;50.958;3.124;2023-05-20T10:06:20;5.03;;;3.28;;
37655;SDS011;23498;50.958;3.124;2023-05-20T10:11:37;7.00;;;3.08;;
37655;SDS011;23498;50.958;3.124;2023-05-20T10:14:12;5.93;;;3.40;;
37655;SDS011;23498;50.958;3.124;2023-05-20T10:16:43;5.43;;;3.00;;
37655;SDS011;23498;50.958;3.124;2023-05-20T10:19:26;5.22;;;3.00;;
37655;SDS011;23498;50.958;3.124;2023-05-20T10:22:00;4.03;;;2.60;;
37655;SDS011;23498;50.958;3.124;2023-05-20T10:24:30;4.15;;;2.60;;
37655;SDS011;23498;50.958;3.124;2023-05-20T10:26:57;6.93;;;3.30;;
37655;SDS011;23498;50.958;3.124;2023-05-20T10:29:24;7.13;;;2.90;;
37655;SDS011;23498;50.958;3.124;2023-05-20T10:31:51;5.68;;;3.50;;
37655;SDS011;23498;50.958;3.124;2023-05-20T10:34:17;6.32;;;3.22;;
37655;SDS011;23498;50.958;3.124;2023-05-20T10:36:44;7.22;;;3.28;;
37655;SDS011;23498;50.958;3.124;2023-05-20T10:39:15;6.80;;;3.58;;
37655;SDS011;23498;50.958;3.124;2023-05-20T10:41:44;4.50;;;2.90;;
37655;SDS011;23498;50.958;3.124;2023-05-20T10:44:10;7.07;;;3.15;;
37655;SDS011;23498;50.958;3.124;2023-05-20T10:46:36;5.35;;;3.30;;
37655;SDS011;23498;50.958;3.124;2023-05-20T10:49:03;7.55;;;3.70;;
37655;SDS011;23498;50.958;3.124;2023-05-20T10:51:29;5.90;;;3.45;;
37655;SDS011;23498;50.958;3.124;2023-05-20T10:54:00;7.82;;;3.47;;
37655;SDS011;23498;50.958;3.124;2023-05-20T10:56:26;5.40;;;3.78;;
37655;SDS011;23498;50.958;3.124;2023-05-20T10:58:53;5.45;;;4.05;;
37655;SDS011;23498;50.958;3.124;2023-05-20T11:01:23;6.93;;;3.95;;
37655;SDS011;23498;50.958;3.124;2023-05-20T11:03:50;6.22;;;3.97;;
37655;SDS011;23498;50.958;3.124;2023-05-20T11:06:16;5.35;;;3.85;;
37655;SDS011;23498;50.958;3.124;2023-05-20T11:08:46;5.80;;;4.00;;
37655;SDS011;23498;50.958;3.124;2023-05-20T11:11:12;6.78;;;4.45;;
37655;SDS011;23498;50.958;3.124;2023-05-20T11:13:39;6.00;;;4.22;;
37655;SDS011;23498;50.958;3.124;2023-05-20T11:16:05;7.40;;;5.13;;
37655;SDS011;23498;50.958;3.124;2023-05-20T11:18:31;5.93;;;4.70;;
37655;SDS011;23498;50.958;3.124;2023-05-20T11:21:01;6.28;;;4.40;;
37655;SDS011;23498;50.958;3.124;2023-05-20T11:23:27;8.07;;;4.10;;
37655;SDS011;23498;50.958;3.124;2023-05-20T11:25:54;7.63;;;4.03;;
37655;SDS011;23498;50.958;3.124;2023-05-20T11:28:21;8.52;;;4.15;;
37655;SDS011;23498;50.958;3.124;2023-05-20T11:30:47;6.40;;;4.13;;
37655;SDS011;23498;50.958;3.124;2023-05-20T11:33:14;5.95;;;4.00;;
37655;SDS011;23498;50.958;3.124;2023-05-20T11:35:45;5.50;;;4.13;;
37655;SDS011;23498;50.958;3.124;2023-05-20T11:38:11;6.50;;;3.88;;
37655;SDS011;23498;50.958;3.124;2023-05-20T11:40:37;7.18;;;4.00;;
37655;SDS011;23498;50.958;3.124;2023-05-20T11:43:09;6.45;;;3.92;;
37655;SDS011;23498;50.958;3.124;2023-05-20T11:45:42;5.18;;;3.58;;
37655;SDS011;23498;50.958;3.124;2023-05-20T11:48:08;10.32;;;3.72;;
37655;SDS011;23498;50.958;3.124;2023-05-20T11:50:39;6.72;;;3.92;;
37655;SDS011;23498;50.958;3.124;2023-05-20T11:53:07;6.25;;;3.75;;
37655;SDS011;23498;50.958;3.124;2023-05-20T11:55:33;6.22;;;3.90;;
37655;SDS011;23498;50.958;3.124;2023-05-20T11:58:00;6.05;;;3.75;;
37655;SDS011;23498;50.958;3.124;2023-05-20T12:00:27;7.15;;;4.43;;
37655;SDS011;23498;50.958;3.124;2023-05-20T12:02:53;7.05;;;3.75;;
37655;SDS011;23498;50.958;3.124;2023-05-20T12:05:19;10.32;;;4.38;;
37655;SDS011;23498;50.958;3.124;2023-05-20T12:07:45;5.45;;;3.83;;
37655;SDS011;23498;50.958;3.124;2023-05-20T12:10:11;6.50;;;3.50;;
37655;SDS011;23498;50.958;3.124;2023-05-20T12:12:37;7.70;;;3.55;;
37655;SDS011;23498;50.958;3.124;2023-05-20T12:15:04;6.72;;;3.17;;
37655;SDS011;23498;50.958;3.124;2023-05-20T12:17:46;5.85;;;3.70;;
37655;SDS011;23498;50.958;3.124;2023-05-20T12:20:13;4.55;;;3.03;;
37655;SDS011;23498;50.958;3.124;2023-05-20T12:22:41;4.35;;;2.92;;
37655;SDS011;23498;50.958;3.124;2023-05-20T12:25:07;4.10;;;3.03;;
37655;SDS011;23498;50.958;3.124;2023-05-20T12:27:33;12.65;;;4.03;;
37655;SDS011;23498;50.958;3.124;2023-05-20T12:29:59;5.13;;;3.17;;
37655;SDS011;23498;50.958;3.124;2023-05-20T12:32:25;5.60;;;3.13;;
37655;SDS011;23498;50.958;3.124;2023-05-20T12:34:51;5.35;;;3.05;;
37655;SDS011;23498;50.958;3.124;2023-05-20T12:37:17;5.00;;;3.00;;
37655;SDS011;23498;50.958;3.124;2023-05-20T12:39:43;6.15;;;2.90;;
37655;SDS011;23498;50.958;3.124;2023-05-20T12:42:10;7.03;;;2.95;;
37655;SDS011;23498;50.958;3.124;2023-05-20T12:44:36;7.30;;;3.20;;
37655;SDS011;23498;50.958;3.124;2023-05-20T12:47:02;7.20;;;3.05;;
37655;SDS011;23498;50.958;3.124;2023-05-20T12:49:28;5.95;;;2.70;;
37655;SDS011;23498;50.958;3.124;2023-05-20T12:51:54;5.07;;;2.85;;
37655;SDS011;23498;50.958;3.124;2023-05-20T12:54:20;4.00;;;2.83;;
37655;SDS011;23498;50.958;3.124;2023-05-20T12:56:46;5.63;;;2.92;;
37655;SDS011;23498;50.958;3.124;2023-05-20T12:59:13;5.47;;;2.55;;
37655;SDS011;23498;50.958;3.124;2023-05-20T13:01:39;4.57;;;2.47;;
37655;SDS011;23498;50.958;3.124;2023-05-20T13:04:05;6.60;;;2.50;;
37655;SDS011;23498;50.958;3.124;2023-05-20T13:06:32;5.45;;;2.42;;
37655;SDS011;23498;50.958;3.124;2023-05-20T13:08:58;4.68;;;2.70;;
37655;SDS011;23498;50.958;3.124;2023-05-20T13:11:24;4.72;;;2.70;;
37655;SDS011;23498;50.958;3.124;2023-05-20T13:13:50;5.03;;;3.00;;
37655;SDS011;23498;50.958;3.124;2023-05-20T13:16:16;4.80;;;2.83;;
37655;SDS011;23498;50.958;3.124;2023-05-20T13:18:43;3.97;;;2.78;;
37655;SDS011;23498;50.958;3.124;2023-05-20T13:21:09;4.07;;;2.25;;
37655;SDS011;23498;50.958;3.124;2023-05-20T13:23:35;4.30;;;2.25;;
37655;SDS011;23498;50.958;3.124;2023-05-20T13:26:01;4.22;;;2.30;;
37655;SDS011;23498;50.958;3.124;2023-05-20T13:28:27;7.10;;;2.35;;
37655;SDS011;23498;50.958;3.124;2023-05-20T13:30:53;4.95;;;2.17;;
37655;SDS011;23498;50.958;3.124;2023-05-20T13:33:19;5.22;;;2.47;;
37655;SDS011;23498;50.958;3.124;2023-05-20T13:35:47;4.47;;;2.30;;
37655;SDS011;23498;50.958;3.124;2023-05-20T13:38:13;3.45;;;1.90;;
37655;SDS011;23498;50.958;3.124;2023-05-20T13:40:39;5.00;;;2.67;;
37655;SDS011;23498;50.958;3.124;2023-05-20T13:43:05;4.85;;;2.60;;
37655;SDS011;23498;50.958;3.124;2023-05-20T13:45:31;3.78;;;2.10;;
37655;SDS011;23498;50.958;3.124;2023-05-20T13:47:57;6.07;;;2.90;;
37655;SDS011;23498;50.958;3.124;2023-05-20T13:50:23;6.78;;;2.50;;
37655;SDS011;23498;50.958;3.124;2023-05-20T13:52:49;6.40;;;2.20;;
37655;SDS011;23498;50.958;3.124;2023-05-20T13:55:15;3.90;;;2.30;;
37655;SDS011;23498;50.958;3.124;2023-05-20T13:57:41;6.22;;;2.72;;
37655;SDS011;23498;50.958;3.124;2023-05-20T14:00:07;5.18;;;2.80;;
37655;SDS011;23498;50.958;3.124;2023-05-20T14:02:34;5.25;;;2.58;;
37655;SDS011;23498;50.958;3.124;2023-05-20T14:05:00;3.13;;;2.03;;
37655;SDS011;23498;50.958;3.124;2023-05-20T14:07:26;4.68;;;2.20;;
37655;SDS011;23498;50.958;3.124;2023-05-20T14:09:52;7.15;;;3.05;;
37655;SDS011;23498;50.958;3.124;2023-05-20T14:12:18;7.47;;;3.35;;
37655;SDS011;23498;50.958;3.124;2023-05-20T14:14:44;5.88;;;2.72;;
37655;SDS011;23498;50.958;3.124;2023-05-20T14:17:10;7.38;;;3.97;;
37655;SDS011;23498;50.958;3.124;2023-05-20T14:19:36;8.82;;;3.08;;
37655;SDS011;23498;50.958;3.124;2023-05-20T14:22:02;4.70;;;2.80;;
37655;SDS011;23498;50.958;3.124;2023-05-20T14:24:28;5.15;;;3.05;;
37655;SDS011;23498;50.958;3.124;2023-05-20T14:26:54;5.97;;;2.95;;
37655;SDS011;23498;50.958;3.124;2023-05-20T14:29:20;6.07;;;3.13;;
37655;SDS011;23498;50.958;3.124;2023-05-20T14:31:46;7.28;;;2.92;;
37655;SDS011;23498;50.958;3.124;2023-05-20T14:34:12;6.32;;;3.40;;
37655;SDS011;23498;50.958;3.124;2023-05-20T14:36:39;5.05;;;3.20;;
37655;SDS011;23498;50.958;3.124;2023-05-20T14:39:05;8.27;;;3.17;;
37655;SDS011;23498;50.958;3.124;2023-05-20T14:41:31;9.23;;;2.65;;
37655;SDS011;23498;50.958;3.124;2023-05-20T14:43:57;4.65;;;2.80;;